createdAt,value
2024-02-29T00:00:27.466Z,148.98
2024-02-29T00:03:34.389Z,151.67
2024-02-29T00:06:40.845Z,151.89
2024-02-29T00:09:50.281Z,172.81
2024-02-29T00:12:56.572Z,178.13
2024-02-29T00:16:03.918Z,168.86
2024-02-29T00:19:09.961Z,161.10
2024-02-29T00:22:16.583Z,168.69
2024-02-29T00:25:25.742Z,175.01
2024-02-29T00:28:32.259Z,178.18
2024-02-29T00:31:38.279Z,169.74
2024-02-29T00:34:45.144Z,166.84
2024-02-29T00:37:51.102Z,170.40
2024-02-29T00:41:00.422Z,182.99
2024-02-29T00:44:06.687Z,177.08
2024-02-29T00:47:15.263Z,183.48
2024-02-29T00:50:21.403Z,187.60
2024-02-29T00:53:28.189Z,189.48
2024-02-29T00:56:36.929Z,202.85
2024-02-29T00:59:44.173Z,197.38
2024-02-29T01:02:50.157Z,193.51
2024-02-29T01:05:57.115Z,185.95
2024-02-29T01:09:03.129Z,188.31
2024-02-29T01:12:12.797Z,190.27
2024-02-29T01:15:20.918Z,186.49
2024-02-29T01:18:27.744Z,181.32
2024-02-29T01:21:33.845Z,187.00
2024-02-29T01:24:40.916Z,189.78
2024-02-29T01:27:49.602Z,206.15
2024-02-29T01:30:56.397Z,191.54
2024-02-29T01:34:02.575Z,187.24
2024-02-29T01:37:09.430Z,201.17
2024-02-29T01:40:19.592Z,191.15
2024-02-29T01:43:30.746Z,191.95
2024-02-29T01:46:36.771Z,186.78
2024-02-29T01:49:44.291Z,182.36
2024-02-29T01:52:50.984Z,184.46
2024-02-29T01:55:58.032Z,190.80
2024-02-29T01:59:08.989Z,188.95
2024-02-29T02:02:16.037Z,191.92
2024-02-29T02:05:22.126Z,188.54
2024-02-29T02:08:31.666Z,188.32
2024-02-29T02:11:37.712Z,192.37
2024-02-29T02:14:47.779Z,189.36
2024-02-29T02:17:53.907Z,193.34
2024-02-29T02:21:03.471Z,197.48
2024-02-29T02:24:09.954Z,198.99
2024-02-29T02:27:16.720Z,193.72
2024-02-29T02:30:22.769Z,199.68
2024-02-29T02:33:29.678Z,194.44
2024-02-29T02:36:38.367Z,197.84
2024-02-29T02:39:45.427Z,208.22
2024-02-29T02:42:51.492Z,214.55
2024-02-29T02:45:58.981Z,197.02
2024-02-29T02:49:05.624Z,200.77
2024-02-29T02:52:15.138Z,217.19
2024-02-29T02:55:21.581Z,233.70
2024-02-29T02:58:28.421Z,245.97
2024-02-29T03:01:35.023Z,246.48
2024-02-29T03:04:41.786Z,234.60
2024-02-29T03:07:50.896Z,229.17
2024-02-29T03:10:58.037Z,239.57
2024-02-29T03:14:04.110Z,239.57
2024-02-29T03:17:10.938Z,241.82
2024-02-29T03:20:17.020Z,238.93
2024-02-29T03:23:26.533Z,248.36
2024-02-29T03:26:32.602Z,239.32
2024-02-29T03:29:39.457Z,244.39
2024-02-29T03:32:45.547Z,248.02
2024-02-29T03:35:52.637Z,252.86
2024-02-29T03:39:01.475Z,250.25
2024-02-29T03:42:08.363Z,254.49
2024-02-29T03:45:14.454Z,260.15
2024-02-29T03:48:21.451Z,247.92
2024-02-29T03:51:27.568Z,256.92
2024-02-29T03:54:37.015Z,256.28
2024-02-29T03:57:43.048Z,265.40
2024-02-29T04:00:50.332Z,256.01
2024-02-29T04:03:56.495Z,253.38
2024-02-29T04:07:03.284Z,254.10
2024-02-29T04:10:13.352Z,254.59
2024-02-29T04:13:21.926Z,255.49
2024-02-29T04:16:28.024Z,255.81
2024-02-29T04:19:34.846Z,253.25
2024-02-29T04:22:40.978Z,247.80
2024-02-29T04:25:50.644Z,246.99
2024-02-29T04:28:56.861Z,246.97
2024-02-29T04:32:08.462Z,242.69
2024-02-29T04:35:14.795Z,246.60
2024-02-29T04:38:21.803Z,241.89
2024-02-29T04:41:30.462Z,243.27
2024-02-29T04:44:37.268Z,239.86
2024-02-29T04:47:44.246Z,235.16
2024-02-29T04:50:51.231Z,243.54
2024-02-29T04:53:57.285Z,242.73
2024-02-29T04:57:06.656Z,241.47
2024-02-29T05:00:14.642Z,230.25
2024-02-29T05:03:22.501Z,229.25
2024-02-29T05:06:29.366Z,215.81
2024-02-29T05:09:36.533Z,209.20
2024-02-29T05:12:50.156Z,203.95
2024-02-29T05:15:56.990Z,199.63
2024-02-29T05:19:03.243Z,201.72
2024-02-29T05:22:10.167Z,199.01
2024-02-29T05:25:16.344Z,199.53
2024-02-29T05:28:25.730Z,204.39
2024-02-29T05:31:32.432Z,202.55
2024-02-29T05:34:39.204Z,201.27
2024-02-29T05:37:45.710Z,198.06
2024-02-29T05:40:52.582Z,197.93
2024-02-29T05:44:01.590Z,194.15
2024-02-29T05:47:09.359Z,196.62
2024-02-29T05:50:15.836Z,196.19
2024-02-29T05:53:22.623Z,207.53
2024-02-29T05:56:28.819Z,208.40
2024-02-29T05:59:38.221Z,215.76
2024-02-29T06:02:44.847Z,205.95
2024-02-29T06:05:51.594Z,218.51
2024-02-29T06:08:57.580Z,227.99
2024-02-29T06:12:04.658Z,228.15
2024-02-29T06:15:14.245Z,237.47
2024-02-29T06:18:21.020Z,230.42
2024-02-29T06:21:27.551Z,222.99
2024-02-29T06:24:34.401Z,207.75
2024-02-29T06:27:41.108Z,203.38
2024-02-29T06:30:51.049Z,214.25
2024-02-29T06:33:57.331Z,234.40
2024-02-29T06:37:04.202Z,242.84
2024-02-29T06:40:14.772Z,238.84
2024-02-29T06:43:21.628Z,241.20
2024-02-29T06:46:30.366Z,236.17
2024-02-29T06:49:37.110Z,262.76
2024-02-29T06:52:43.695Z,270.19
2024-02-29T06:55:50.493Z,285.18
2024-02-29T06:58:56.465Z,298.59
2024-02-29T07:02:06.344Z,298.25
2024-02-29T07:05:12.860Z,289.39
2024-02-29T07:08:19.692Z,291.77
2024-02-29T07:11:27.507Z,273.85
2024-02-29T07:14:34.819Z,266.13
2024-02-29T07:17:43.551Z,262.75
2024-02-29T07:20:50.583Z,264.49
2024-02-29T07:23:56.598Z,261.01
2024-02-29T07:27:04.052Z,259.70
2024-02-29T07:30:12.736Z,251.14
2024-02-29T07:33:22.670Z,260.32
2024-02-29T07:36:30.080Z,277.23
2024-02-29T07:39:36.917Z,266.95
2024-02-29T07:42:43.327Z,265.67
2024-02-29T07:45:50.307Z,269.00
2024-02-29T07:48:58.977Z,272.41
2024-02-29T07:52:06.117Z,269.12
2024-02-29T07:55:15.994Z,277.93
2024-02-29T07:58:22.873Z,275.75
2024-02-29T08:01:28.947Z,268.88
2024-02-29T08:04:38.471Z,257.88
2024-02-29T08:07:48.084Z,240.59
2024-02-29T08:10:54.885Z,253.04
2024-02-29T08:14:00.944Z,250.87
2024-02-29T08:17:08.261Z,268.38
2024-02-29T08:20:21.652Z,272.35
2024-02-29T08:23:28.747Z,276.29
2024-02-29T08:26:34.926Z,274.20
2024-02-29T08:29:41.776Z,286.10
2024-02-29T08:32:50.071Z,268.04
2024-02-29T08:35:59.511Z,273.00
2024-02-29T08:39:06.020Z,261.86
2024-02-29T08:42:12.821Z,266.25
2024-02-29T08:45:20.530Z,265.28
2024-02-29T08:48:28.609Z,263.87
2024-02-29T08:51:37.443Z,261.87
2024-02-29T08:54:43.840Z,271.81
2024-02-29T08:57:49.410Z,273.17
2024-02-29T09:00:55.999Z,262.20
2024-02-29T09:04:03.269Z,260.42
2024-02-29T09:07:12.154Z,260.69
2024-02-29T09:10:18.249Z,259.11
2024-02-29T09:13:30.550Z,250.49
2024-02-29T09:16:40.755Z,252.61
2024-02-29T09:19:47.685Z,245.02
2024-02-29T09:22:56.111Z,247.32
2024-02-29T09:26:04.186Z,246.63
2024-02-29T09:29:09.674Z,242.23
2024-02-29T09:32:15.910Z,243.48
2024-02-29T09:35:21.399Z,239.21
2024-02-29T09:38:30.476Z,236.84
2024-02-29T09:41:58.819Z,232.30
2024-02-29T09:45:02.401Z,228.38
2024-02-29T09:48:11.124Z,220.80
2024-02-29T09:51:24.389Z,215.79
2024-02-29T09:54:38.139Z,218.68
2024-02-29T09:57:45.074Z,213.44
2024-02-29T10:00:51.851Z,217.12
2024-02-29T10:03:59.972Z,216.01
2024-02-29T10:07:05.564Z,214.52
2024-02-29T10:10:18.075Z,212.75
2024-02-29T10:13:23.721Z,203.75
2024-02-29T10:16:30.126Z,206.19
2024-02-29T10:19:38.937Z,203.92
2024-02-29T10:22:49.126Z,198.48
2024-02-29T10:25:59.133Z,199.29
2024-02-29T10:29:07.373Z,192.76
2024-02-29T10:32:13.543Z,188.95
2024-02-29T10:35:24.635Z,186.33
2024-02-29T10:38:30.151Z,186.38
2024-02-29T10:41:42.600Z,188.58
2024-02-29T10:44:51.882Z,187.55
2024-02-29T10:48:12.206Z,187.29
2024-02-29T10:51:31.020Z,177.71
2024-02-29T10:54:56.913Z,178.33
2024-02-29T10:58:16.492Z,174.84
2024-02-29T11:01:23.169Z,176.73
2024-02-29T11:04:29.303Z,181.81
2024-02-29T11:07:36.788Z,179.74
2024-02-29T11:10:42.465Z,176.91
2024-02-29T11:13:51.298Z,174.20
2024-02-29T11:16:59.724Z,175.01
2024-02-29T11:20:10.619Z,177.78
2024-02-29T11:23:17.391Z,183.06
2024-02-29T11:26:33.211Z,172.80
2024-02-29T11:29:41.460Z,174.07
2024-02-29T11:32:47.703Z,179.68
2024-02-29T11:35:55.956Z,175.98
2024-02-29T11:39:03.158Z,180.85
2024-02-29T11:42:09.652Z,178.60
2024-02-29T11:45:25.607Z,192.57
2024-02-29T11:48:31.286Z,178.20
2024-02-29T11:51:37.763Z,181.02
2024-02-29T11:54:43.732Z,186.04
2024-02-29T11:57:50.558Z,195.99
2024-02-29T12:00:58.698Z,179.39
2024-02-29T12:04:06.220Z,172.79
2024-02-29T12:07:12.197Z,177.11
2024-02-29T12:10:19.682Z,174.69
2024-02-29T12:13:25.879Z,172.87
2024-02-29T12:16:34.886Z,169.74
2024-02-29T12:19:43.241Z,174.03
2024-02-29T12:22:50.771Z,169.74
2024-02-29T12:25:56.525Z,169.30
2024-02-29T12:29:03.642Z,164.08
2024-02-29T12:32:13.755Z,163.13
2024-02-29T12:35:21.537Z,164.88
2024-02-29T12:38:28.743Z,167.46
2024-02-29T12:41:35.429Z,160.30
2024-02-29T12:44:41.526Z,158.83
2024-02-29T12:47:50.392Z,163.44
2024-02-29T12:50:56.066Z,169.54
2024-02-29T12:54:02.307Z,165.67
2024-02-29T12:57:11.440Z,174.78
2024-02-29T13:00:25.412Z,165.42
2024-02-29T13:03:33.711Z,159.07
2024-02-29T13:06:40.456Z,162.12
2024-02-29T13:09:47.092Z,160.62
2024-02-29T13:13:00.195Z,172.56
2024-02-29T13:16:11.791Z,171.47
2024-02-29T13:19:20.754Z,172.63
2024-02-29T13:22:26.484Z,162.54
2024-02-29T13:25:33.021Z,167.47
2024-02-29T13:28:39.880Z,168.50
2024-02-29T13:31:46.260Z,169.03
2024-02-29T13:34:55.059Z,164.98
2024-02-29T13:38:04.248Z,164.91
2024-02-29T13:41:11.039Z,167.44
2024-02-29T13:44:17.357Z,170.39
2024-02-29T13:47:22.890Z,170.73
2024-02-29T13:50:31.810Z,165.28
2024-02-29T13:53:37.844Z,169.98
2024-02-29T13:56:44.274Z,176.21
2024-02-29T13:59:50.800Z,172.71
2024-02-29T14:02:57.039Z,167.12
2024-02-29T14:06:05.794Z,176.66
2024-02-29T14:09:12.804Z,171.33
2024-02-29T14:12:18.471Z,178.97
2024-02-29T14:15:24.799Z,171.66
2024-02-29T14:18:31.501Z,174.95
2024-02-29T14:21:40.415Z,175.39
2024-02-29T14:24:49.192Z,171.60
2024-02-29T14:27:56.882Z,185.84
2024-02-29T14:31:02.464Z,183.06
2024-02-29T14:34:10.333Z,183.29
2024-02-29T14:37:19.192Z,186.72
2024-02-29T14:40:26.070Z,190.44
2024-02-29T14:43:31.690Z,194.06
2024-02-29T14:46:38.802Z,186.83
2024-02-29T14:49:44.525Z,187.66
2024-02-29T14:52:53.420Z,186.75
2024-02-29T14:55:59.216Z,189.22
2024-02-29T14:59:05.647Z,196.41
2024-02-29T15:02:12.804Z,196.81
2024-02-29T15:05:19.263Z,198.81
2024-02-29T15:08:27.680Z,196.99
2024-02-29T15:11:34.154Z,195.21
2024-02-29T15:14:40.374Z,194.28
2024-02-29T15:17:47.126Z,194.19
2024-02-29T15:20:53.331Z,192.48
2024-02-29T15:24:06.056Z,210.08
2024-02-29T15:27:11.982Z,215.86
2024-02-29T15:30:18.682Z,210.56
2024-02-29T15:33:24.318Z,208.92
2024-02-29T15:36:30.587Z,212.09
2024-02-29T15:39:38.840Z,210.92
2024-02-29T15:42:45.107Z,214.32
2024-02-29T15:45:50.794Z,221.11
2024-02-29T15:48:57.637Z,218.50
2024-02-29T15:52:04.323Z,225.98
2024-02-29T15:55:13.465Z,232.33
2024-02-29T15:58:19.356Z,227.71
2024-02-29T16:01:26.065Z,224.97
2024-02-29T16:04:32.142Z,277.54
2024-02-29T16:07:38.537Z,244.01
2024-02-29T16:10:48.336Z,230.57
2024-02-29T16:13:56.706Z,242.33
2024-02-29T16:17:03.385Z,261.04
2024-02-29T16:20:11.640Z,245.78
2024-02-29T16:23:18.775Z,258.23
2024-02-29T16:26:27.934Z,267.45
2024-02-29T16:29:33.601Z,296.87
2024-02-29T16:32:41.481Z,331.21
2024-02-29T16:35:48.327Z,308.62
2024-02-29T16:38:54.661Z,299.60
2024-02-29T16:42:02.829Z,287.00
2024-02-29T16:45:10.825Z,291.24
2024-02-29T16:48:16.521Z,282.69
2024-02-29T16:51:22.923Z,291.11
2024-02-29T16:54:28.552Z,291.85
2024-02-29T16:57:37.837Z,285.66
2024-02-29T17:00:43.372Z,303.94
2024-02-29T17:03:49.724Z,297.62
2024-02-29T17:06:55.563Z,301.20
2024-02-29T17:10:03.000Z,303.47
2024-02-29T17:13:11.426Z,307.64
2024-02-29T17:16:18.158Z,358.99
2024-02-29T17:19:23.878Z,350.29
2024-02-29T17:22:30.916Z,361.26
2024-02-29T17:25:36.617Z,378.29
2024-02-29T17:28:45.479Z,485.60
2024-02-29T17:31:51.010Z,514.66
2024-02-29T17:34:57.444Z,422.58
2024-02-29T17:38:03.956Z,480.31
2024-02-29T17:41:10.253Z,374.85
2024-02-29T17:44:20.837Z,359.11
2024-02-29T17:47:27.271Z,373.30
2024-02-29T17:50:32.954Z,361.85
2024-02-29T17:53:39.203Z,357.37
2024-02-29T17:56:47.761Z,357.45
2024-02-29T17:59:59.114Z,383.74
2024-02-29T18:03:04.650Z,373.27
2024-02-29T18:06:12.309Z,364.18
2024-02-29T18:09:18.169Z,363.46
2024-02-29T18:12:24.498Z,365.28
2024-02-29T18:15:32.613Z,375.11
2024-02-29T18:18:39.328Z,388.47
2024-02-29T18:21:47.087Z,398.25
2024-02-29T18:24:54.572Z,369.29
2024-02-29T18:28:00.190Z,374.02
2024-02-29T18:31:09.272Z,415.40
2024-02-29T18:34:14.969Z,383.56
2024-02-29T18:37:21.319Z,375.00
2024-02-29T18:40:27.179Z,382.12
2024-02-29T18:43:33.581Z,384.32
2024-02-29T18:46:43.801Z,385.86
2024-02-29T18:49:50.319Z,390.43
2024-02-29T18:52:56.037Z,412.37
2024-02-29T18:56:02.298Z,395.25
2024-02-29T18:59:07.949Z,414.02
2024-02-29T19:02:17.009Z,409.57
2024-02-29T19:05:22.844Z,384.37
2024-02-29T19:08:29.374Z,394.39
2024-02-29T19:11:34.932Z,410.39
2024-02-29T19:14:41.345Z,407.74
2024-02-29T19:17:49.550Z,410.50
2024-02-29T19:20:55.851Z,422.19
2024-02-29T19:24:01.364Z,407.08
2024-02-29T19:27:10.081Z,409.13
2024-02-29T19:30:18.916Z,424.06
2024-02-29T19:33:28.396Z,426.43
2024-02-29T19:36:34.278Z,459.33
2024-02-29T19:39:44.353Z,446.54
2024-02-29T19:42:50.126Z,451.60
2024-02-29T19:45:56.484Z,421.47
2024-02-29T19:49:04.641Z,427.00
2024-02-29T19:52:11.084Z,432.44
2024-02-29T19:55:16.597Z,419.51
2024-02-29T19:58:22.917Z,421.08
2024-02-29T20:01:28.611Z,424.91
2024-02-29T20:04:37.786Z,412.29
2024-02-29T20:07:44.054Z,411.08
2024-02-29T20:10:50.575Z,410.25
2024-02-29T20:13:56.227Z,401.04
2024-02-29T20:17:04.866Z,402.22
2024-02-29T20:20:15.370Z,407.45
2024-02-29T20:23:22.457Z,420.45
2024-02-29T20:26:28.723Z,421.10
2024-02-29T20:29:35.010Z,409.20
2024-02-29T20:32:41.740Z,415.53
2024-02-29T20:35:50.572Z,420.33
2024-02-29T20:38:56.081Z,421.76
2024-02-29T20:42:02.431Z,424.81
2024-02-29T20:45:09.235Z,420.08
2024-02-29T20:48:18.131Z,420.70
2024-02-29T20:51:26.429Z,424.31
2024-02-29T20:54:32.890Z,433.30
2024-02-29T20:57:39.965Z,430.43
2024-02-29T21:00:46.531Z,435.72
2024-02-29T21:03:52.780Z,437.15
2024-02-29T21:07:01.913Z,442.36
2024-02-29T21:10:08.753Z,451.46
2024-02-29T21:13:15.191Z,449.79
2024-02-29T21:16:20.863Z,450.96
2024-02-29T21:19:27.467Z,449.93
2024-02-29T21:22:36.442Z,459.74
2024-02-29T21:25:42.714Z,455.25
2024-02-29T21:28:50.705Z,455.87
2024-02-29T21:31:57.025Z,452.41
2024-02-29T21:35:02.599Z,457.23
2024-02-29T21:38:11.557Z,453.63
2024-02-29T21:41:17.466Z,463.99
2024-02-29T21:44:26.086Z,456.60
2024-02-29T21:47:31.677Z,462.70
2024-02-29T21:50:38.245Z,450.66
2024-02-29T21:53:46.488Z,455.03
2024-02-29T21:56:54.348Z,445.77
2024-02-29T21:59:59.829Z,458.80
2024-02-29T22:03:06.668Z,464.02
2024-02-29T22:06:15.103Z,459.23
2024-02-29T22:09:25.141Z,467.40
2024-02-29T22:12:30.733Z,460.61
2024-02-29T22:15:37.059Z,475.59
2024-02-29T22:18:42.612Z,475.17
2024-02-29T22:21:48.997Z,456.69
2024-02-29T22:24:57.377Z,463.51
2024-02-29T22:28:03.668Z,456.34
2024-02-29T22:31:09.187Z,461.54
2024-02-29T22:34:15.564Z,463.92
2024-02-29T22:37:21.567Z,470.97
2024-02-29T22:40:30.684Z,467.88
2024-02-29T22:43:36.477Z,473.78
2024-02-29T22:46:42.711Z,469.00
2024-02-29T22:49:48.168Z,475.89
2024-02-29T22:52:57.543Z,479.66
2024-02-29T22:56:05.657Z,483.38
2024-02-29T22:59:11.988Z,483.76
2024-02-29T23:02:17.525Z,483.40
2024-02-29T23:05:23.755Z,486.50
2024-02-29T23:08:30.996Z,472.96
2024-02-29T23:11:42.012Z,477.24
2024-02-29T23:14:51.076Z,483.59
2024-02-29T23:17:57.349Z,491.79
2024-02-29T23:21:03.064Z,491.31
2024-02-29T23:24:11.204Z,498.57
2024-02-29T23:27:19.294Z,499.81
2024-02-29T23:30:26.068Z,492.04
2024-02-29T23:33:32.149Z,498.28
2024-02-29T23:36:38.481Z,515.03
2024-02-29T23:39:44.033Z,514.60
2024-02-29T23:42:53.028Z,504.04
2024-02-29T23:45:59.087Z,503.56
2024-02-29T23:49:05.511Z,496.80
2024-02-29T23:52:11.235Z,492.76
2024-02-29T23:55:17.762Z,493.57
2024-02-29T23:58:25.952Z,494.01
